createdAt,value
2019-04-20T00:01:28.117Z,91.10
2019-04-20T00:03:50.580Z,91.10
2019-04-20T00:06:19.559Z,92.20
2019-04-20T00:08:47.572Z,91.30
2019-04-20T00:11:21.882Z,91.50
2019-04-20T00:13:54.920Z,91.70
2019-04-20T00:16:18.808Z,90.00
2019-04-20T00:18:53.110Z,89.90
2019-04-20T00:21:19.151Z,90.60
2019-04-20T00:23:48.609Z,90.70
2019-04-20T00:26:32.276Z,92.10
2019-04-20T00:29:06.965Z,92.60
2019-04-20T00:31:30.758Z,93.10
2019-04-20T00:33:55.887Z,93.30
2019-04-20T00:36:18.290Z,93.60
2019-04-20T00:38:51.208Z,92.60
2019-04-20T00:41:15.960Z,91.90
2019-04-20T00:43:42.554Z,92.50
2019-04-20T00:46:23.059Z,93.50
2019-04-20T00:48:50.481Z,92.10
2019-04-20T00:51:41.953Z,93.40
2019-04-20T00:53:47.891Z,93.10
2019-04-20T00:56:12.192Z,93.20
2019-04-20T00:58:51.950Z,95.10
2019-04-20T01:01:34.351Z,94.50
2019-04-20T01:03:52.289Z,93.90
2019-04-20T01:06:27.244Z,93.40
2019-04-20T01:08:38.683Z,93.00
2019-04-20T01:11:08.202Z,93.50
2019-04-20T01:13:42.150Z,93.50
2019-04-20T01:16:21.666Z,94.50
2019-04-20T01:18:37.795Z,95.00
2019-04-20T01:21:14.028Z,94.50
2019-04-20T01:23:44.063Z,95.60
2019-04-20T01:26:10.944Z,96.00
2019-04-20T01:28:46.780Z,95.40
2019-04-20T01:31:15.773Z,94.20
2019-04-20T01:33:48.465Z,95.30
2019-04-20T01:36:19.630Z,94.40
2019-04-20T01:38:49.836Z,95.80
2019-04-20T01:41:01.316Z,94.00
2019-04-20T01:43:31.239Z,95.00
2019-04-20T01:46:08.196Z,95.60
2019-04-20T01:48:34.045Z,96.90
2019-04-20T01:51:07.292Z,96.90
2019-04-20T01:53:46.981Z,96.30
2019-04-20T01:56:13.741Z,96.20
2019-04-20T01:58:47.484Z,96.50
2019-04-20T02:00:59.514Z,95.70
2019-04-20T02:03:36.952Z,94.90
2019-04-20T02:06:05.585Z,96.20
2019-04-20T02:08:32.741Z,96.70
2019-04-20T02:11:07.738Z,97.10
2019-04-20T02:13:36.179Z,97.40
2019-04-20T02:16:13.948Z,97.20
2019-04-20T02:18:42.101Z,96.30
2019-04-20T02:21:18.388Z,96.40
2019-04-20T02:23:42.860Z,96.80
2019-04-20T02:26:00.863Z,97.90
2019-04-20T02:28:58.981Z,98.30
2019-04-20T02:32:01.467Z,98.80
2019-04-20T02:34:03.817Z,99.60
2019-04-20T02:41:29.468Z,99.80
2019-04-20T02:44:16.036Z,99.90
2019-04-20T02:46:24.804Z,99.90
2019-04-20T02:49:06.065Z,99.90
2019-04-20T02:51:22.915Z,99.90
2019-04-20T02:54:00.458Z,98.40
2019-04-20T02:56:25.747Z,97.30
2019-04-20T02:58:57.115Z,97.50
2019-04-20T03:01:07.083Z,96.50
2019-04-20T03:03:22.783Z,95.70
2019-04-20T03:06:00.248Z,96.10
2019-04-20T03:13:51.682Z,95.90
2019-04-20T03:16:16.495Z,96.40
2019-04-20T03:18:40.930Z,96.10
2019-04-20T03:21:21.422Z,94.80
2019-04-20T03:23:47.985Z,95.30
2019-04-20T03:26:10.962Z,97.00
2019-04-20T03:28:37.308Z,97.80
2019-04-20T03:31:33.317Z,96.50
2019-04-20T03:34:09.778Z,97.50
2019-04-20T03:36:21.027Z,96.80
2019-04-20T03:38:38.450Z,96.60
2019-04-20T03:40:56.606Z,96.60
2019-04-20T03:43:13.839Z,97.50
2019-04-20T03:45:48.426Z,99.60
2019-04-20T03:48:32.234Z,98.60
2019-04-20T03:50:59.688Z,97.50
2019-04-20T03:53:29.877Z,98.80
2019-04-20T03:55:52.619Z,99.50
2019-04-20T03:58:24.114Z,97.90
2019-04-20T04:00:50.379Z,97.80
2019-04-20T04:03:31.824Z,96.80
2019-04-20T04:05:46.135Z,98.00
2019-04-20T04:08:10.657Z,97.70
2019-04-20T04:10:44.528Z,97.30
2019-04-20T04:12:56.803Z,96.70
2019-04-20T04:15:23.489Z,96.30
2019-04-20T04:17:51.439Z,96.30
2019-04-20T04:20:21.026Z,95.80
2019-04-20T04:23:08.317Z,96.70
2019-04-20T04:25:24.970Z,95.70
2019-04-20T04:28:01.343Z,95.80
2019-04-20T04:30:26.639Z,95.40
2019-04-20T04:33:25.056Z,95.40
2019-04-20T04:35:23.276Z,95.10
2019-04-20T04:37:57.051Z,95.70
2019-04-20T04:40:46.257Z,95.00
2019-04-20T04:43:04.313Z,95.50
2019-04-20T04:45:13.964Z,94.90
2019-04-20T04:47:39.027Z,95.50
2019-04-20T04:50:17.878Z,95.40
2019-04-20T04:52:52.192Z,95.60
2019-04-20T04:55:19.947Z,94.10
2019-04-20T04:57:37.075Z,95.10
2019-04-20T05:00:05.659Z,95.30
2019-04-20T05:02:39.319Z,95.10
2019-04-20T05:07:49.617Z,94.10
2019-04-20T05:10:05.736Z,94.10
2019-04-20T05:12:35.052Z,93.50
2019-04-20T05:15:10.217Z,94.60
2019-04-20T05:17:50.237Z,92.40
2019-04-20T05:20:18.120Z,90.90
2019-04-20T05:22:45.785Z,90.60
2019-04-20T05:25:21.555Z,90.10
2019-04-20T05:27:46.622Z,91.30
2019-04-20T05:29:57.015Z,90.00
2019-04-20T05:32:35.769Z,89.20
2019-04-20T05:35:23.697Z,89.30
2019-04-20T05:37:59.375Z,87.70
2019-04-20T05:40:22.696Z,86.60
2019-04-20T05:42:59.178Z,87.30
2019-04-20T05:45:24.929Z,89.00
2019-04-20T05:47:58.998Z,85.20
2019-04-20T05:50:31.669Z,86.60
2019-04-20T05:53:04.490Z,84.40
2019-04-20T05:55:33.077Z,83.30
2019-04-20T05:58:03.568Z,83.10
2019-04-20T06:00:34.240Z,81.90
2019-04-20T06:03:00.722Z,81.20
2019-04-20T06:05:38.001Z,82.30
2019-04-20T06:10:36.461Z,82.40
2019-04-20T06:13:00.549Z,80.00
2019-04-20T06:15:24.510Z,78.60
2019-04-20T06:17:53.203Z,77.60
2019-04-20T06:20:31.024Z,77.30
2019-04-20T06:23:05.553Z,76.50
2019-04-20T06:25:44.308Z,76.90
2019-04-20T06:27:58.081Z,77.40
2019-04-20T06:30:25.177Z,73.20
2019-04-20T06:33:07.843Z,72.70
2019-04-20T06:35:56.113Z,72.50
2019-04-20T06:38:03.135Z,71.70
2019-04-20T06:40:46.900Z,71.80
2019-04-20T06:42:59.977Z,71.40
2019-04-20T06:45:39.837Z,72.20
2019-04-20T06:48:01.016Z,69.90
2019-04-20T06:50:24.211Z,70.00
2019-04-20T06:52:46.291Z,71.20
2019-04-20T06:55:20.042Z,69.80
2019-04-20T06:57:52.875Z,68.80
2019-04-20T07:00:18.141Z,71.00
2019-04-20T07:05:24.810Z,70.80
2019-04-20T07:10:18.247Z,69.30
2019-04-20T07:12:43.619Z,69.20
2019-04-20T07:15:08.561Z,69.50
2019-04-20T07:20:11.594Z,66.70
2019-04-20T07:22:46.207Z,66.40
2019-04-20T07:25:14.255Z,65.20
2019-04-20T07:27:43.183Z,64.20
2019-04-20T07:30:10.236Z,61.80
2019-04-20T07:32:48.520Z,61.00
2019-04-20T07:35:08.766Z,59.90
2019-04-20T07:40:07.795Z,58.40
2019-04-20T07:42:35.241Z,56.80
2019-04-20T07:45:21.917Z,55.60
2019-04-20T07:47:34.458Z,53.10
2019-04-20T07:49:58.334Z,51.30
2019-04-20T07:52:06.249Z,49.50
2019-04-20T07:55:12.405Z,48.50
2019-04-20T07:57:21.639Z,47.30
2019-04-20T07:59:50.901Z,46.20
2019-04-20T08:02:32.392Z,41.90
2019-04-20T08:04:47.374Z,40.60
2019-04-20T08:07:03.383Z,41.90
2019-04-20T08:09:35.217Z,43.00
2019-04-20T08:12:21.198Z,44.40
2019-04-20T08:14:50.690Z,42.10
2019-04-20T08:17:20.296Z,41.90
2019-04-20T08:19:41.072Z,41.10
2019-04-20T08:22:16.824Z,39.50
2019-04-20T08:24:37.752Z,40.40
2019-04-20T08:26:53.104Z,41.00
2019-04-20T08:32:31.288Z,39.40
2019-04-20T08:35:00.717Z,38.20
2019-04-20T08:37:21.176Z,39.90
2019-04-20T08:40:05.320Z,38.20
2019-04-20T08:42:30.712Z,38.90
2019-04-20T08:50:03.387Z,35.90
2019-04-20T08:52:53.670Z,38.50
2019-04-20T08:54:58.097Z,38.40
2019-04-20T08:57:07.000Z,36.40
2019-04-20T08:59:36.678Z,39.90
2019-04-20T09:02:10.321Z,36.40
2019-04-20T09:04:45.030Z,37.30
2019-04-20T09:07:16.146Z,37.90
2019-04-20T09:10:00.785Z,37.50
2019-04-20T09:12:24.410Z,36.10
2019-04-20T09:14:38.490Z,35.70
2019-04-20T09:17:08.005Z,34.10
2019-04-20T09:19:45.348Z,35.50
2019-04-20T09:22:16.196Z,35.60
2019-04-20T09:25:01.716Z,35.80
2019-04-20T09:27:18.378Z,33.40
2019-04-20T09:29:42.785Z,36.00
2019-04-20T09:32:30.976Z,33.30
2019-04-20T09:35:01.101Z,34.10
2019-04-20T09:37:32.104Z,35.50
2019-04-20T09:40:03.441Z,35.50
2019-04-20T09:42:08.092Z,33.60
2019-04-20T09:44:42.641Z,35.70
2019-04-20T09:47:08.673Z,34.30
2019-04-20T09:49:49.161Z,29.50
2019-04-20T09:52:16.963Z,32.90
2019-04-20T09:54:51.076Z,30.10
2019-04-20T09:57:22.788Z,32.40
2019-04-20T09:59:51.073Z,33.50
2019-04-20T10:02:05.506Z,33.50
2019-04-20T10:04:31.242Z,31.70
2019-04-20T10:07:07.893Z,30.60
2019-04-20T10:09:34.656Z,31.60
2019-04-20T10:11:57.518Z,31.90
2019-04-20T10:14:26.958Z,31.60
2019-04-20T10:16:57.992Z,30.20
2019-04-20T10:19:30.940Z,32.50
2019-04-20T10:21:55.085Z,32.10
2019-04-20T10:24:26.491Z,32.80
2019-04-20T10:26:55.079Z,30.90
2019-04-20T10:29:23.735Z,31.40
2019-04-20T10:31:58.547Z,33.50
2019-04-20T10:34:28.514Z,30.90
2019-04-20T10:36:55.689Z,30.60
2019-04-20T10:39:22.630Z,32.40
2019-04-20T10:41:54.479Z,31.50
2019-04-20T10:44:18.708Z,31.60
2019-04-20T10:46:46.928Z,31.30
2019-04-20T10:49:15.327Z,32.60
2019-04-20T10:51:42.356Z,33.20
2019-04-20T10:54:08.968Z,33.20
2019-04-20T10:56:37.058Z,34.70
2019-04-20T10:59:05.469Z,32.10
2019-04-20T11:01:33.667Z,30.50
2019-04-20T11:04:02.995Z,34.30
2019-04-20T11:06:29.909Z,32.80
2019-04-20T11:08:58.434Z,34.50
2019-04-20T11:11:28.664Z,31.80
2019-04-20T11:13:55.114Z,31.70
2019-04-20T11:16:22.647Z,30.60
2019-04-20T11:18:49.435Z,32.50
2019-04-20T11:21:17.387Z,31.40
2019-04-20T11:23:44.528Z,30.60
2019-04-20T11:26:11.485Z,33.80
2019-04-20T11:28:37.999Z,33.90
2019-04-20T11:31:05.914Z,32.20
2019-04-20T11:33:32.602Z,30.90
2019-04-20T11:36:01.018Z,31.50
2019-04-20T11:38:28.232Z,30.40
2019-04-20T11:41:07.347Z,30.00
2019-04-20T11:43:23.993Z,30.50
2019-04-20T11:45:51.103Z,29.90
2019-04-20T11:48:19.087Z,29.30
2019-04-20T11:50:45.685Z,32.20
2019-04-20T11:53:13.294Z,30.40
2019-04-20T11:55:40.387Z,29.10
2019-04-20T11:58:08.068Z,29.70
2019-04-20T12:00:42.296Z,29.30
2019-04-20T12:03:15.029Z,31.90
2019-04-20T12:05:38.092Z,29.60
2019-04-20T12:08:00.927Z,30.00
2019-04-20T12:10:29.565Z,31.30
2019-04-20T12:13:10.214Z,32.90
2019-04-20T12:15:38.914Z,32.70
2019-04-20T12:18:07.359Z,29.50
2019-04-20T12:20:34.605Z,30.00
2019-04-20T12:23:02.207Z,29.60
2019-04-20T12:25:32.542Z,30.90
2019-04-20T12:28:00.556Z,28.60
2019-04-20T12:30:27.959Z,30.60
2019-04-20T12:32:58.548Z,28.80
2019-04-20T12:35:24.490Z,29.60
2019-04-20T12:37:54.710Z,30.00
2019-04-20T12:40:25.904Z,31.90
2019-04-20T12:42:59.233Z,29.60
2019-04-20T12:45:29.330Z,29.80
2019-04-20T12:47:57.311Z,30.20
2019-04-20T12:50:35.220Z,30.70
2019-04-20T12:55:38.908Z,30.70
2019-04-20T13:00:58.867Z,28.40
2019-04-20T13:03:29.759Z,29.30
2019-04-20T13:05:58.273Z,29.20
2019-04-20T13:08:36.945Z,28.40
2019-04-20T13:11:02.539Z,29.00
2019-04-20T13:13:30.460Z,28.50
2019-04-20T13:15:58.380Z,28.00
2019-04-20T13:21:01.713Z,27.80
2019-04-20T13:23:31.044Z,28.90
2019-04-20T13:25:59.183Z,28.10
2019-04-20T13:28:28.701Z,28.00
2019-04-20T13:30:59.760Z,28.10
2019-04-20T13:33:29.562Z,29.30
2019-04-20T13:36:04.097Z,31.10
2019-04-20T13:38:30.142Z,30.10
2019-04-20T13:41:06.064Z,29.40
2019-04-20T13:43:35.518Z,28.40
2019-04-20T13:46:02.888Z,28.50
2019-04-20T13:48:31.048Z,28.00
2019-04-20T13:51:02.356Z,29.50
2019-04-20T13:53:29.341Z,28.80
2019-04-20T13:58:31.576Z,28.20
2019-04-20T14:01:10.300Z,28.10
2019-04-20T14:03:36.935Z,29.10
2019-04-20T14:06:04.668Z,28.30
2019-04-20T14:08:34.144Z,29.30
2019-04-20T14:11:03.266Z,29.80
2019-04-20T14:13:40.594Z,30.00
2019-04-20T14:16:05.122Z,28.80
2019-04-20T14:21:05.936Z,28.70
2019-04-20T14:23:32.885Z,29.40
2019-04-20T14:26:03.150Z,29.30
2019-04-20T14:28:34.603Z,28.40
2019-04-20T14:31:05.675Z,28.40
2019-04-20T14:33:33.154Z,28.30
2019-04-20T14:36:08.733Z,27.70
2019-04-20T14:38:38.336Z,28.70
2019-04-20T14:41:08.561Z,29.90
2019-04-20T14:43:42.687Z,28.50
2019-04-20T14:46:10.500Z,29.60
2019-04-20T14:48:39.123Z,28.50
2019-04-20T14:51:10.358Z,29.40
2019-04-20T14:53:45.317Z,27.70
2019-04-20T14:56:15.716Z,27.20
2019-04-20T14:58:49.317Z,27.70
2019-04-20T15:01:26.893Z,29.00
2019-04-20T15:04:04.836Z,27.90
2019-04-20T15:06:29.729Z,27.00
2019-04-20T15:08:58.842Z,28.90
2019-04-20T15:11:41.755Z,29.80
2019-04-20T15:14:11.138Z,28.70
2019-04-20T15:16:40.393Z,27.80
2019-04-20T15:19:09.560Z,27.40
2019-04-20T15:21:39.654Z,29.10
2019-04-20T15:24:13.890Z,28.20
2019-04-20T15:26:40.340Z,28.10
2019-04-20T15:29:14.617Z,27.50
2019-04-20T15:31:44.082Z,28.60
2019-04-20T15:34:12.927Z,27.70
2019-04-20T15:36:44.681Z,27.80
2019-04-20T15:39:16.867Z,28.00
2019-04-20T15:41:43.638Z,27.70
2019-04-20T15:44:15.352Z,26.40
2019-04-20T15:46:45.882Z,27.60
2019-04-20T15:52:01.723Z,28.50
2019-04-20T15:54:29.611Z,26.50
2019-04-20T15:57:02.363Z,27.80
2019-04-20T15:59:28.628Z,27.90
2019-04-20T16:01:55.628Z,28.30
2019-04-20T16:04:29.322Z,28.60
2019-04-20T16:06:56.959Z,27.60
2019-04-20T16:09:31.954Z,29.00
2019-04-20T16:12:11.349Z,27.60
2019-04-20T16:14:41.849Z,29.10
2019-04-20T16:17:12.298Z,29.10
2019-04-20T16:19:57.032Z,28.40
2019-04-20T16:22:23.704Z,29.10
2019-04-20T16:24:53.746Z,28.40
2019-04-20T16:27:25.548Z,27.60
2019-04-20T16:29:55.492Z,28.00
2019-04-20T16:32:28.632Z,28.10
2019-04-20T16:35:00.347Z,28.80
2019-04-20T16:37:32.700Z,27.50
2019-04-20T16:40:00.792Z,28.80
2019-04-20T16:42:29.954Z,27.80
2019-04-20T16:45:01.123Z,29.20
2019-04-20T16:50:17.095Z,28.20
2019-04-20T16:52:48.830Z,26.90
2019-04-20T16:55:16.845Z,26.30
2019-04-20T16:57:47.519Z,26.40
2019-04-20T17:00:15.532Z,27.30
2019-04-20T17:02:44.595Z,28.20
2019-04-20T17:05:13.657Z,28.80
2019-04-20T17:07:45.022Z,29.20
2019-04-20T17:10:16.252Z,29.30
2019-04-20T17:12:48.061Z,29.10
2019-04-20T17:15:17.085Z,29.30
2019-04-20T17:17:46.177Z,29.00
2019-04-20T17:20:13.714Z,29.10
2019-04-20T17:25:29.794Z,29.80
2019-04-20T17:27:59.263Z,30.00
2019-04-20T17:30:29.439Z,29.60
2019-04-20T17:32:59.801Z,29.80
2019-04-20T17:35:40.620Z,29.90
2019-04-20T17:40:48.843Z,30.10
2019-04-20T17:43:06.047Z,31.40
2019-04-20T17:45:41.546Z,32.50
2019-04-20T17:48:17.211Z,33.40
2019-04-20T17:50:58.970Z,32.30
2019-04-20T17:53:22.696Z,32.90
2019-04-20T17:55:41.678Z,32.90
2019-04-20T17:58:12.177Z,34.20
2019-04-20T18:03:58.647Z,35.30
2019-04-20T18:06:15.127Z,35.70
2019-04-20T18:08:43.960Z,35.10
2019-04-20T18:11:01.840Z,35.90
2019-04-20T18:13:23.966Z,36.50
2019-04-20T18:16:14.254Z,37.00
2019-04-20T18:18:31.820Z,37.20
2019-04-20T18:21:03.132Z,38.00
2019-04-20T18:23:36.350Z,38.20
2019-04-20T18:26:25.830Z,38.30
2019-04-20T18:28:54.418Z,38.20
2019-04-20T18:31:03.713Z,37.60
2019-04-20T18:33:34.927Z,38.50
2019-04-20T18:36:08.055Z,37.90
2019-04-20T18:38:40.591Z,38.30
2019-04-20T18:41:07.912Z,38.70
2019-04-20T18:43:33.036Z,39.00
2019-04-20T18:46:18.031Z,39.60
2019-04-20T18:48:48.365Z,39.40
2019-04-20T18:50:57.607Z,39.00
2019-04-20T18:53:33.580Z,40.10
2019-04-20T18:55:56.079Z,39.30
2019-04-20T18:58:21.179Z,40.30
2019-04-20T19:00:51.550Z,40.10
2019-04-20T19:03:25.277Z,41.50
2019-04-20T19:05:45.120Z,41.60
2019-04-20T19:08:13.919Z,41.80
2019-04-20T19:10:43.525Z,41.10
2019-04-20T19:13:19.313Z,40.80
2019-04-20T19:15:56.069Z,41.00
2019-04-20T19:18:22.049Z,41.00
2019-04-20T19:20:35.138Z,41.20
2019-04-20T19:23:02.129Z,42.00
2019-04-20T19:25:34.551Z,41.80
2019-04-20T19:27:59.596Z,42.10
2019-04-20T19:30:35.236Z,42.50
2019-04-20T19:33:17.182Z,42.00
2019-04-20T19:35:33.613Z,42.40
2019-04-20T19:38:03.375Z,44.10
2019-04-20T19:40:36.045Z,43.90
2019-04-20T19:43:02.409Z,43.50
2019-04-20T19:45:42.276Z,43.90
2019-04-20T19:48:02.515Z,44.30
2019-04-20T19:50:46.555Z,45.20
2019-04-20T19:53:12.750Z,44.40
2019-04-20T19:55:27.460Z,44.40
2019-04-20T19:57:59.397Z,45.50
2019-04-20T20:00:11.482Z,44.30
2019-04-20T20:02:45.722Z,44.60
2019-04-20T20:05:16.347Z,45.00
2019-04-20T20:10:14.641Z,44.70
2019-04-20T20:12:48.095Z,45.80
2019-04-20T20:15:14.261Z,45.20
2019-04-20T20:17:59.030Z,44.50
2019-04-20T20:20:45.577Z,44.80
2019-04-20T20:22:53.157Z,46.10
2019-04-20T20:25:17.100Z,46.30
2019-04-20T20:27:52.723Z,46.60
2019-04-20T20:30:32.893Z,46.50
2019-04-20T20:32:58.275Z,47.50
2019-04-20T20:35:16.703Z,46.60
2019-04-20T20:37:47.053Z,46.60
2019-04-20T20:40:17.425Z,47.10
2019-04-20T20:42:54.017Z,49.70
2019-04-20T20:45:18.773Z,49.10
2019-04-20T20:47:58.112Z,48.20
2019-04-20T20:50:26.308Z,48.30
2019-04-20T20:52:50.810Z,49.20
2019-04-20T20:55:14.721Z,48.20
2019-04-20T20:57:41.774Z,48.20
2019-04-20T21:00:22.642Z,47.90
2019-04-20T21:02:52.400Z,47.80
2019-04-20T21:05:13.639Z,48.70
2019-04-20T21:07:42.746Z,49.10
2019-04-20T21:10:10.267Z,48.60
2019-04-20T21:15:26.218Z,49.00
2019-04-20T21:18:16.248Z,49.30
2019-04-20T21:20:45.276Z,49.20
2019-04-20T21:23:04.268Z,49.90
2019-04-20T21:25:17.082Z,49.90
2019-04-20T21:27:44.510Z,50.00
2019-04-20T21:30:18.589Z,50.60
2019-04-20T21:32:45.672Z,50.40
2019-04-20T21:35:11.085Z,50.30
2019-04-20T21:37:37.126Z,49.80
2019-04-20T21:40:16.717Z,49.80
2019-04-20T21:42:39.522Z,50.50
2019-04-20T21:45:07.003Z,49.80
2019-04-20T21:47:33.565Z,50.50
2019-04-20T21:50:17.010Z,50.10
2019-04-20T21:52:34.272Z,50.20
2019-04-20T21:54:56.086Z,50.70
2019-04-20T21:57:24.088Z,50.70
2019-04-20T21:59:54.259Z,52.30
2019-04-20T22:02:25.275Z,51.60
2019-04-20T22:04:49.286Z,51.60
2019-04-20T22:07:16.554Z,51.80
2019-04-20T22:09:47.680Z,52.20
2019-04-20T22:12:12.016Z,52.10
2019-04-20T22:14:39.809Z,52.70
2019-04-20T22:17:07.809Z,54.00
2019-04-20T22:19:44.035Z,54.50
2019-04-20T22:22:16.144Z,54.70
2019-04-20T22:24:46.557Z,54.40
2019-04-20T22:27:07.528Z,55.20
2019-04-20T22:29:30.108Z,55.80
2019-04-20T22:32:03.107Z,55.00
2019-04-20T22:34:28.062Z,54.30
2019-04-20T22:36:54.324Z,54.70
2019-04-20T22:39:24.545Z,55.50
2019-04-20T22:41:53.573Z,54.60
2019-04-20T22:44:20.972Z,53.80
2019-04-20T22:46:47.633Z,54.40
2019-04-20T22:49:35.906Z,55.30
2019-04-20T22:51:53.224Z,55.20
2019-04-20T22:54:27.596Z,56.60
2019-04-20T22:56:49.955Z,55.20
2019-04-20T22:59:13.911Z,54.90
2019-04-20T23:01:45.911Z,55.50
2019-04-20T23:04:06.485Z,55.70
2019-04-20T23:06:38.854Z,55.20
2019-04-20T23:09:04.821Z,55.20
2019-04-20T23:11:33.550Z,56.30
2019-04-20T23:14:00.342Z,55.80
2019-04-20T23:16:35.118Z,55.20
2019-04-20T23:18:56.164Z,56.40
2019-04-20T23:21:23.905Z,56.40
2019-04-20T23:23:53.740Z,57.00
2019-04-20T23:26:29.324Z,56.60
2019-04-20T23:28:51.818Z,56.60
2019-04-20T23:31:20.127Z,57.30
2019-04-20T23:33:45.753Z,58.10
2019-04-20T23:36:12.390Z,57.50
2019-04-20T23:38:42.503Z,58.20
2019-04-20T23:41:07.966Z,58.10
2019-04-20T23:43:38.465Z,59.10
2019-04-20T23:46:09.247Z,62.20
2019-04-20T23:48:38.963Z,59.90
2019-04-20T23:51:26.380Z,61.90
2019-04-20T23:53:46.790Z,63.40
2019-04-20T23:55:59.586Z,63.00
2019-04-20T23:58:26.497Z,59.90
